sensor_id;sensor_type;location;lat;lon;timestamp;pressure;altitude;pressure_sealevel;temperature;humidity
24834;BME280;12914;43.702;22.862;2022-07-23T00:00:28;99005.06;;;30.80;37.29
24834;BME280;12914;43.702;22.862;2022-07-23T00:02:54;99005.59;;;30.99;36.62
24834;BME280;12914;43.702;22.862;2022-07-23T00:05:19;99004.19;;;30.30;37.51
24834;BME280;12914;43.702;22.862;2022-07-23T00:07:45;99007.16;;;30.04;38.04
24834;BME280;12914;43.702;22.862;2022-07-23T00:10:10;99011.22;;;29.74;38.76
24834;BME280;12914;43.702;22.862;2022-07-23T00:12:36;99004.06;;;29.88;39.07
24834;BME280;12914;43.702;22.862;2022-07-23T00:15:04;99003.69;;;29.58;39.53
24834;BME280;12914;43.702;22.862;2022-07-23T00:17:30;99001.66;;;29.00;39.98
24834;BME280;12914;43.702;22.862;2022-07-23T00:19:55;99004.38;;;29.24;39.61
24834;BME280;12914;43.702;22.862;2022-07-23T00:22:21;99001.13;;;29.68;39.47
24834;BME280;12914;43.702;22.862;2022-07-23T00:24:46;99000.00;;;29.05;39.72
24834;BME280;12914;43.702;22.862;2022-07-23T00:27:12;99004.25;;;29.30;39.20
24834;BME280;12914;43.702;22.862;2022-07-23T00:29:37;99003.88;;;29.07;39.79
24834;BME280;12914;43.702;22.862;2022-07-23T00:32:03;99005.22;;;28.93;40.02
24834;BME280;12914;43.702;22.862;2022-07-23T00:34:29;99011.53;;;29.05;39.88
24834;BME280;12914;43.702;22.862;2022-07-23T00:36:55;99006.31;;;29.03;39.93
24834;BME280;12914;43.702;22.862;2022-07-23T00:39:20;99000.53;;;28.90;39.82
24834;BME280;12914;43.702;22.862;2022-07-23T00:41:48;99006.91;;;29.54;38.85
24834;BME280;12914;43.702;22.862;2022-07-23T00:44:22;99001.72;;;29.53;38.53
24834;BME280;12914;43.702;22.862;2022-07-23T00:46:53;98996.94;;;29.16;38.43
24834;BME280;12914;43.702;22.862;2022-07-23T00:49:23;99003.06;;;29.86;37.42
24834;BME280;12914;43.702;22.862;2022-07-23T00:51:50;98998.63;;;29.85;36.82
24834;BME280;12914;43.702;22.862;2022-07-23T00:54:17;99002.56;;;29.74;36.65
24834;BME280;12914;43.702;22.862;2022-07-23T00:56:43;99006.41;;;29.90;36.97
24834;BME280;12914;43.702;22.862;2022-07-23T00:59:09;98993.84;;;29.87;36.66
24834;BME280;12914;43.702;22.862;2022-07-23T01:01:35;98998.13;;;29.60;36.56
24834;BME280;12914;43.702;22.862;2022-07-23T01:04:01;98996.81;;;30.08;36.10
24834;BME280;12914;43.702;22.862;2022-07-23T01:06:27;98990.16;;;30.00;35.86
24834;BME280;12914;43.702;22.862;2022-07-23T01:08:54;98999.34;;;30.12;36.01
24834;BME280;12914;43.702;22.862;2022-07-23T01:11:21;98995.47;;;30.09;35.80
24834;BME280;12914;43.702;22.862;2022-07-23T01:13:48;99001.34;;;30.17;35.68
24834;BME280;12914;43.702;22.862;2022-07-23T01:16:13;98997.03;;;29.50;36.50
24834;BME280;12914;43.702;22.862;2022-07-23T01:18:39;98988.72;;;29.60;36.25
24834;BME280;12914;43.702;22.862;2022-07-23T01:21:05;98997.00;;;29.76;36.49
24834;BME280;12914;43.702;22.862;2022-07-23T01:23:30;99001.91;;;29.42;36.44
24834;BME280;12914;43.702;22.862;2022-07-23T01:25:56;98995.09;;;29.79;36.05
24834;BME280;12914;43.702;22.862;2022-07-23T01:28:22;98992.59;;;29.96;36.04
24834;BME280;12914;43.702;22.862;2022-07-23T01:30:48;98992.59;;;30.09;35.83
24834;BME280;12914;43.702;22.862;2022-07-23T01:33:14;98994.97;;;29.84;35.92
24834;BME280;12914;43.702;22.862;2022-07-23T01:35:40;98996.88;;;29.82;36.04
24834;BME280;12914;43.702;22.862;2022-07-23T01:38:05;98999.94;;;29.97;35.82
24834;BME280;12914;43.702;22.862;2022-07-23T01:40:31;98996.44;;;29.78;36.30
24834;BME280;12914;43.702;22.862;2022-07-23T01:42:57;98999.59;;;29.27;36.99
24834;BME280;12914;43.702;22.862;2022-07-23T01:45:23;99000.16;;;29.99;36.46
24834;BME280;12914;43.702;22.862;2022-07-23T01:47:49;98995.84;;;29.45;37.05
24834;BME280;12914;43.702;22.862;2022-07-23T01:50:14;98993.56;;;28.85;37.59
24834;BME280;12914;43.702;22.862;2022-07-23T01:52:41;99003.69;;;29.32;37.51
24834;BME280;12914;43.702;22.862;2022-07-23T01:55:07;98996.56;;;30.20;37.06
24834;BME280;12914;43.702;22.862;2022-07-23T01:57:32;98993.34;;;29.10;37.73
24834;BME280;12914;43.702;22.862;2022-07-23T01:59:58;98988.81;;;29.01;37.83
24834;BME280;12914;43.702;22.862;2022-07-23T02:02:24;98999.88;;;29.76;36.67
24834;BME280;12914;43.702;22.862;2022-07-23T02:04:49;98995.81;;;30.06;36.42
24834;BME280;12914;43.702;22.862;2022-07-23T02:07:15;98993.25;;;29.68;37.20
24834;BME280;12914;43.702;22.862;2022-07-23T02:09:40;98995.81;;;30.06;36.48
24834;BME280;12914;43.702;22.862;2022-07-23T02:12:06;99007.47;;;31.74;35.02
24834;BME280;12914;43.702;22.862;2022-07-23T02:14:32;99010.38;;;30.00;36.59
24834;BME280;12914;43.702;22.862;2022-07-23T02:16:57;99004.13;;;29.62;37.26
24834;BME280;12914;43.702;22.862;2022-07-23T02:19:23;99009.78;;;29.41;37.86
24834;BME280;12914;43.702;22.862;2022-07-23T02:21:49;99009.34;;;29.37;37.98
24834;BME280;12914;43.702;22.862;2022-07-23T02:24:15;99009.69;;;29.20;37.76
24834;BME280;12914;43.702;22.862;2022-07-23T02:26:41;99008.16;;;30.82;35.75
24834;BME280;12914;43.702;22.862;2022-07-23T02:29:06;99015.16;;;31.72;34.00
24834;BME280;12914;43.702;22.862;2022-07-23T02:31:32;99019.00;;;30.47;34.43
24834;BME280;12914;43.702;22.862;2022-07-23T02:33:58;99015.94;;;31.72;33.22
24834;BME280;12914;43.702;22.862;2022-07-23T02:36:24;99008.56;;;30.24;34.77
24834;BME280;12914;43.702;22.862;2022-07-23T02:38:49;99013.34;;;30.21;35.14
24834;BME280;12914;43.702;22.862;2022-07-23T02:41:15;99002.44;;;30.27;35.29
24834;BME280;12914;43.702;22.862;2022-07-23T02:43:41;99008.06;;;30.33;36.65
24834;BME280;12914;43.702;22.862;2022-07-23T02:46:06;99013.53;;;32.58;33.16
24834;BME280;12914;43.702;22.862;2022-07-23T02:48:32;99016.19;;;30.34;35.16
24834;BME280;12914;43.702;22.862;2022-07-23T02:50:58;99015.47;;;29.60;35.45
24834;BME280;12914;43.702;22.862;2022-07-23T02:53:24;99017.78;;;29.75;35.63
24834;BME280;12914;43.702;22.862;2022-07-23T02:55:49;99018.97;;;29.79;35.72
24834;BME280;12914;43.702;22.862;2022-07-23T02:58:15;99029.03;;;29.99;35.31
24834;BME280;12914;43.702;22.862;2022-07-23T03:00:41;99023.44;;;29.67;35.80
24834;BME280;12914;43.702;22.862;2022-07-23T03:03:07;99029.78;;;29.39;36.10
24834;BME280;12914;43.702;22.862;2022-07-23T03:05:33;99034.06;;;29.06;37.21
24834;BME280;12914;43.702;22.862;2022-07-23T03:07:59;99035.22;;;29.56;36.57
24834;BME280;12914;43.702;22.862;2022-07-23T03:10:25;99034.22;;;29.40;36.54
24834;BME280;12914;43.702;22.862;2022-07-23T03:12:50;99031.44;;;29.61;36.62
24834;BME280;12914;43.702;22.862;2022-07-23T03:15:16;99036.28;;;29.00;37.37
24834;BME280;12914;43.702;22.862;2022-07-23T03:17:41;99038.75;;;29.36;37.35
24834;BME280;12914;43.702;22.862;2022-07-23T03:20:08;99028.09;;;29.17;37.86
24834;BME280;12914;43.702;22.862;2022-07-23T03:22:33;99030.78;;;29.15;37.76
24834;BME280;12914;43.702;22.862;2022-07-23T03:24:59;99032.97;;;29.09;38.21
24834;BME280;12914;43.702;22.862;2022-07-23T03:27:26;99037.66;;;29.65;37.16
24834;BME280;12914;43.702;22.862;2022-07-23T03:29:53;99035.22;;;29.56;37.09
24834;BME280;12914;43.702;22.862;2022-07-23T03:32:20;99046.97;;;28.22;40.15
24834;BME280;12914;43.702;22.862;2022-07-23T03:34:46;99056.16;;;28.40;39.72
24834;BME280;12914;43.702;22.862;2022-07-23T03:37:12;99059.03;;;28.21;40.65
24834;BME280;12914;43.702;22.862;2022-07-23T03:39:38;99056.38;;;27.85;40.38
24834;BME280;12914;43.702;22.862;2022-07-23T03:42:04;99048.19;;;28.08;41.89
24834;BME280;12914;43.702;22.862;2022-07-23T03:44:30;99059.31;;;27.61;42.65
24834;BME280;12914;43.702;22.862;2022-07-23T03:46:55;99058.78;;;27.57;42.86
24834;BME280;12914;43.702;22.862;2022-07-23T03:49:21;99062.59;;;27.89;42.15
24834;BME280;12914;43.702;22.862;2022-07-23T03:51:46;99064.47;;;28.06;42.16
24834;BME280;12914;43.702;22.862;2022-07-23T03:54:12;99049.94;;;28.68;38.70
24834;BME280;12914;43.702;22.862;2022-07-23T03:56:38;99056.41;;;29.85;37.74
24834;BME280;12914;43.702;22.862;2022-07-23T03:59:03;99063.72;;;29.86;37.46
24834;BME280;12914;43.702;22.862;2022-07-23T04:01:29;99055.41;;;29.82;37.80
24834;BME280;12914;43.702;22.862;2022-07-23T04:03:54;99058.03;;;30.20;36.73
24834;BME280;12914;43.702;22.862;2022-07-23T04:06:20;99057.34;;;30.61;36.12
24834;BME280;12914;43.702;22.862;2022-07-23T04:08:45;99065.88;;;30.67;35.64
24834;BME280;12914;43.702;22.862;2022-07-23T04:11:11;99066.56;;;30.60;35.91
24834;BME280;12914;43.702;22.862;2022-07-23T04:13:36;99068.75;;;30.88;35.83
24834;BME280;12914;43.702;22.862;2022-07-23T04:16:02;99062.41;;;30.68;35.81
24834;BME280;12914;43.702;22.862;2022-07-23T04:18:29;99064.09;;;31.05;35.75
24834;BME280;12914;43.702;22.862;2022-07-23T04:20:55;99057.91;;;30.80;36.57
24834;BME280;12914;43.702;22.862;2022-07-23T04:23:20;99066.72;;;30.75;36.25
24834;BME280;12914;43.702;22.862;2022-07-23T04:25:46;99067.06;;;31.34;35.62
24834;BME280;12914;43.702;22.862;2022-07-23T04:28:11;99059.47;;;31.59;35.54
24834;BME280;12914;43.702;22.862;2022-07-23T04:30:37;99071.69;;;31.37;36.44
24834;BME280;12914;43.702;22.862;2022-07-23T04:33:03;99068.91;;;31.52;35.80
24834;BME280;12914;43.702;22.862;2022-07-23T04:35:32;99079.91;;;31.25;36.40
24834;BME280;12914;43.702;22.862;2022-07-23T04:37:57;99069.38;;;31.35;36.18
24834;BME280;12914;43.702;22.862;2022-07-23T04:40:23;99075.44;;;31.73;36.45
24834;BME280;12914;43.702;22.862;2022-07-23T04:42:48;99078.53;;;31.47;36.71
24834;BME280;12914;43.702;22.862;2022-07-23T04:45:14;99071.28;;;31.61;36.31
24834;BME280;12914;43.702;22.862;2022-07-23T04:47:39;99077.81;;;31.90;35.82
24834;BME280;12914;43.702;22.862;2022-07-23T04:50:05;99080.97;;;32.00;36.01
24834;BME280;12914;43.702;22.862;2022-07-23T04:52:31;99080.22;;;32.07;34.73
24834;BME280;12914;43.702;22.862;2022-07-23T04:54:56;99081.28;;;31.89;36.08
24834;BME280;12914;43.702;22.862;2022-07-23T04:57:22;99086.03;;;32.15;35.01
24834;BME280;12914;43.702;22.862;2022-07-23T04:59:47;99075.63;;;31.75;38.31
24834;BME280;12914;43.702;22.862;2022-07-23T05:02:13;99085.53;;;31.59;39.47
24834;BME280;12914;43.702;22.862;2022-07-23T05:04:38;99091.94;;;31.94;37.93
24834;BME280;12914;43.702;22.862;2022-07-23T05:07:04;99085.06;;;32.12;38.75
24834;BME280;12914;43.702;22.862;2022-07-23T05:09:29;99081.00;;;31.71;41.63
24834;BME280;12914;43.702;22.862;2022-07-23T05:11:55;99092.69;;;31.87;41.04
24834;BME280;12914;43.702;22.862;2022-07-23T05:14:20;99086.63;;;32.21;39.71
24834;BME280;12914;43.702;22.862;2022-07-23T05:16:46;99096.47;;;32.54;39.55
24834;BME280;12914;43.702;22.862;2022-07-23T05:19:11;99091.50;;;32.92;39.39
24834;BME280;12914;43.702;22.862;2022-07-23T05:21:37;99092.81;;;32.76;40.39
24834;BME280;12914;43.702;22.862;2022-07-23T05:24:03;99102.16;;;32.97;40.38
24834;BME280;12914;43.702;22.862;2022-07-23T05:26:29;99103.03;;;32.62;40.63
24834;BME280;12914;43.702;22.862;2022-07-23T05:28:54;99101.97;;;33.18;39.60
24834;BME280;12914;43.702;22.862;2022-07-23T05:31:20;99101.59;;;33.52;38.81
24834;BME280;12914;43.702;22.862;2022-07-23T05:33:45;99092.72;;;33.43;37.02
24834;BME280;12914;43.702;22.862;2022-07-23T05:36:11;99095.38;;;33.63;37.52
24834;BME280;12914;43.702;22.862;2022-07-23T05:38:36;99102.38;;;33.45;38.13
24834;BME280;12914;43.702;22.862;2022-07-23T05:41:02;99103.72;;;33.14;39.38
24834;BME280;12914;43.702;22.862;2022-07-23T05:43:28;99105.66;;;33.49;37.99
24834;BME280;12914;43.702;22.862;2022-07-23T05:45:54;99098.06;;;33.77;39.25
24834;BME280;12914;43.702;22.862;2022-07-23T05:48:20;99100.34;;;34.01;37.18
24834;BME280;12914;43.702;22.862;2022-07-23T05:50:46;99108.53;;;33.72;38.62
24834;BME280;12914;43.702;22.862;2022-07-23T05:53:12;99094.50;;;34.09;38.58
24834;BME280;12914;43.702;22.862;2022-07-23T05:55:38;99099.44;;;34.31;38.07
24834;BME280;12914;43.702;22.862;2022-07-23T05:58:03;99092.94;;;34.08;37.04
24834;BME280;12914;43.702;22.862;2022-07-23T06:00:30;99096.88;;;33.80;38.51
24834;BME280;12914;43.702;22.862;2022-07-23T06:02:56;99100.50;;;34.58;37.62
24834;BME280;12914;43.702;22.862;2022-07-23T06:05:22;99099.50;;;33.38;39.00
24834;BME280;12914;43.702;22.862;2022-07-23T06:07:47;99109.91;;;33.56;38.85
24834;BME280;12914;43.702;22.862;2022-07-23T06:10:13;99109.75;;;33.31;39.75
24834;BME280;12914;43.702;22.862;2022-07-23T06:12:39;99110.34;;;34.63;39.58
24834;BME280;12914;43.702;22.862;2022-07-23T06:15:05;99107.53;;;34.80;37.31
24834;BME280;12914;43.702;22.862;2022-07-23T06:17:30;99112.72;;;34.57;37.70
24834;BME280;12914;43.702;22.862;2022-07-23T06:19:56;99110.53;;;34.98;37.67
24834;BME280;12914;43.702;22.862;2022-07-23T06:22:22;99110.06;;;34.76;36.97
24834;BME280;12914;43.702;22.862;2022-07-23T06:24:48;99102.44;;;34.56;37.86
24834;BME280;12914;43.702;22.862;2022-07-23T06:27:14;99108.97;;;35.21;36.32
24834;BME280;12914;43.702;22.862;2022-07-23T06:29:40;99103.53;;;35.50;35.21
24834;BME280;12914;43.702;22.862;2022-07-23T06:32:06;99102.69;;;35.75;35.71
24834;BME280;12914;43.702;22.862;2022-07-23T06:34:33;99113.44;;;35.90;36.83
24834;BME280;12914;43.702;22.862;2022-07-23T06:36:59;99114.03;;;35.21;36.07
24834;BME280;12914;43.702;22.862;2022-07-23T06:39:26;99110.56;;;36.51;33.39
24834;BME280;12914;43.702;22.862;2022-07-23T06:41:52;99109.19;;;36.52;34.44
24834;BME280;12914;43.702;22.862;2022-07-23T06:44:18;99115.91;;;36.45;32.91
24834;BME280;12914;43.702;22.862;2022-07-23T06:46:43;99112.81;;;36.08;33.58
24834;BME280;12914;43.702;22.862;2022-07-23T06:49:09;99114.16;;;36.59;33.49
24834;BME280;12914;43.702;22.862;2022-07-23T06:51:35;99109.97;;;36.53;33.23
24834;BME280;12914;43.702;22.862;2022-07-23T06:54:02;99106.13;;;36.77;32.86
24834;BME280;12914;43.702;22.862;2022-07-23T06:56:27;99104.44;;;35.95;34.53
24834;BME280;12914;43.702;22.862;2022-07-23T06:58:53;99111.50;;;36.54;33.06
24834;BME280;12914;43.702;22.862;2022-07-23T07:01:18;99101.00;;;36.95;32.39
24834;BME280;12914;43.702;22.862;2022-07-23T07:03:44;99102.38;;;36.67;33.04
24834;BME280;12914;43.702;22.862;2022-07-23T07:06:10;99102.84;;;37.27;33.15
24834;BME280;12914;43.702;22.862;2022-07-23T07:08:36;99105.63;;;37.34;33.01
24834;BME280;12914;43.702;22.862;2022-07-23T07:11:02;99106.31;;;37.16;32.84
24834;BME280;12914;43.702;22.862;2022-07-23T07:13:28;99111.28;;;37.69;30.88
24834;BME280;12914;43.702;22.862;2022-07-23T07:15:53;99101.91;;;38.28;30.72
24834;BME280;12914;43.702;22.862;2022-07-23T07:18:19;99111.78;;;38.23;30.73
24834;BME280;12914;43.702;22.862;2022-07-23T07:20:44;99107.91;;;38.40;30.75
24834;BME280;12914;43.702;22.862;2022-07-23T07:23:10;99107.28;;;37.74;31.93
24834;BME280;12914;43.702;22.862;2022-07-23T07:25:35;99115.00;;;38.18;30.61
24834;BME280;12914;43.702;22.862;2022-07-23T07:28:01;99120.53;;;38.72;30.21
24834;BME280;12914;43.702;22.862;2022-07-23T07:30:26;99112.22;;;38.39;31.44
24834;BME280;12914;43.702;22.862;2022-07-23T07:32:52;99109.59;;;38.62;33.34
24834;BME280;12914;43.702;22.862;2022-07-23T07:35:17;99108.25;;;39.35;28.92
24834;BME280;12914;43.702;22.862;2022-07-23T07:37:43;99104.34;;;39.42;28.62
24834;BME280;12914;43.702;22.862;2022-07-23T07:40:09;99109.22;;;41.83;27.11
24834;BME280;12914;43.702;22.862;2022-07-23T07:42:34;99109.16;;;42.06;27.05
24834;BME280;12914;43.702;22.862;2022-07-23T07:45:00;99103.94;;;38.95;29.30
24834;BME280;12914;43.702;22.862;2022-07-23T07:47:25;99111.75;;;39.74;30.75
24834;BME280;12914;43.702;22.862;2022-07-23T07:49:51;99089.53;;;39.50;31.31
24834;BME280;12914;43.702;22.862;2022-07-23T07:52:16;99105.19;;;39.85;31.37
24834;BME280;12914;43.702;22.862;2022-07-23T07:54:42;99109.09;;;40.54;34.02
24834;BME280;12914;43.702;22.862;2022-07-23T07:57:08;99106.53;;;41.52;29.77
24834;BME280;12914;43.702;22.862;2022-07-23T07:59:34;99110.94;;;42.36;27.63
24834;BME280;12914;43.702;22.862;2022-07-23T08:01:59;99102.00;;;42.60;28.24
24834;BME280;12914;43.702;22.862;2022-07-23T08:04:25;99106.09;;;43.19;28.90
24834;BME280;12914;43.702;22.862;2022-07-23T08:06:50;99102.53;;;41.94;27.87
24834;BME280;12914;43.702;22.862;2022-07-23T08:09:16;99102.72;;;43.11;28.65
24834;BME280;12914;43.702;22.862;2022-07-23T08:11:41;99103.44;;;43.78;26.09
24834;BME280;12914;43.702;22.862;2022-07-23T08:14:07;99096.31;;;45.33;25.39
24834;BME280;12914;43.702;22.862;2022-07-23T08:16:34;99095.28;;;46.98;24.12
24834;BME280;12914;43.702;22.862;2022-07-23T08:18:59;99093.28;;;46.85;23.45
24834;BME280;12914;43.702;22.862;2022-07-23T08:21:25;99086.00;;;45.34;23.89
24834;BME280;12914;43.702;22.862;2022-07-23T08:23:50;99099.88;;;46.30;24.14
24834;BME280;12914;43.702;22.862;2022-07-23T08:26:16;99094.56;;;46.44;25.40
24834;BME280;12914;43.702;22.862;2022-07-23T08:28:41;99099.97;;;43.01;26.46
24834;BME280;12914;43.702;22.862;2022-07-23T08:31:07;99102.19;;;42.76;27.08
24834;BME280;12914;43.702;22.862;2022-07-23T08:33:32;99098.81;;;42.05;27.16
24834;BME280;12914;43.702;22.862;2022-07-23T08:35:58;99103.72;;;42.51;26.46
24834;BME280;12914;43.702;22.862;2022-07-23T08:38:24;99105.91;;;43.29;26.11
24834;BME280;12914;43.702;22.862;2022-07-23T08:40:52;99105.47;;;42.31;26.47
24834;BME280;12914;43.702;22.862;2022-07-23T08:43:24;99100.25;;;43.88;26.07
24834;BME280;12914;43.702;22.862;2022-07-23T08:45:52;99101.31;;;44.38;26.04
24834;BME280;12914;43.702;22.862;2022-07-23T08:48:27;99096.78;;;44.21;25.02
24834;BME280;12914;43.702;22.862;2022-07-23T08:50:54;99094.53;;;43.64;26.85
24834;BME280;12914;43.702;22.862;2022-07-23T08:53:22;99102.84;;;43.54;26.71
24834;BME280;12914;43.702;22.862;2022-07-23T08:55:50;99104.06;;;43.36;25.06
24834;BME280;12914;43.702;22.862;2022-07-23T08:58:18;99105.59;;;43.50;25.66
24834;BME280;12914;43.702;22.862;2022-07-23T09:00:45;99095.09;;;44.32;26.68
24834;BME280;12914;43.702;22.862;2022-07-23T09:03:16;99096.41;;;43.44;25.73
24834;BME280;12914;43.702;22.862;2022-07-23T09:05:42;99103.50;;;43.39;28.43
24834;BME280;12914;43.702;22.862;2022-07-23T09:08:09;99106.13;;;43.88;26.34
24834;BME280;12914;43.702;22.862;2022-07-23T09:13:37;99099.84;;;42.99;26.09
24834;BME280;12914;43.702;22.862;2022-07-23T09:16:17;99091.44;;;44.17;27.15
24834;BME280;12914;43.702;22.862;2022-07-23T09:18:52;99095.03;;;44.16;25.53
24834;BME280;12914;43.702;22.862;2022-07-23T09:21:22;99094.31;;;44.31;24.88
24834;BME280;12914;43.702;22.862;2022-07-23T09:26:25;99093.06;;;44.20;25.01
24834;BME280;12914;43.702;22.862;2022-07-23T09:28:55;99084.03;;;45.72;23.32
24834;BME280;12914;43.702;22.862;2022-07-23T09:31:22;99089.63;;;45.97;23.84
24834;BME280;12914;43.702;22.862;2022-07-23T09:33:48;99091.16;;;45.98;23.96
24834;BME280;12914;43.702;22.862;2022-07-23T09:36:13;99088.97;;;44.86;24.07
24834;BME280;12914;43.702;22.862;2022-07-23T09:38:50;99083.03;;;45.49;23.43
24834;BME280;12914;43.702;22.862;2022-07-23T09:41:16;99082.09;;;43.52;24.23
24834;BME280;12914;43.702;22.862;2022-07-23T09:43:42;99073.25;;;44.98;23.73
24834;BME280;12914;43.702;22.862;2022-07-23T09:46:25;99074.16;;;44.41;23.80
24834;BME280;12914;43.702;22.862;2022-07-23T09:48:55;99081.66;;;43.17;24.37
24834;BME280;12914;43.702;22.862;2022-07-23T09:51:23;99080.88;;;43.16;24.84
24834;BME280;12914;43.702;22.862;2022-07-23T09:54:25;99071.16;;;41.98;25.80
24834;BME280;12914;43.702;22.862;2022-07-23T09:56:53;99075.41;;;43.24;26.17
24834;BME280;12914;43.702;22.862;2022-07-23T09:59:23;99077.66;;;44.67;24.82
24834;BME280;12914;43.702;22.862;2022-07-23T10:01:50;99076.41;;;44.72;24.55
24834;BME280;12914;43.702;22.862;2022-07-23T10:04:18;99070.72;;;45.89;24.79
24834;BME280;12914;43.702;22.862;2022-07-23T10:06:45;99065.91;;;44.99;25.67
24834;BME280;12914;43.702;22.862;2022-07-23T10:09:12;99059.22;;;44.98;24.68
24834;BME280;12914;43.702;22.862;2022-07-23T10:11:40;99053.75;;;44.77;25.98
24834;BME280;12914;43.702;22.862;2022-07-23T10:14:05;99055.03;;;44.87;24.80
24834;BME280;12914;43.702;22.862;2022-07-23T10:16:31;99058.09;;;46.04;22.97
24834;BME280;12914;43.702;22.862;2022-07-23T10:18:57;99046.56;;;46.30;22.86
24834;BME280;12914;43.702;22.862;2022-07-23T10:27:05;99043.03;;;46.16;24.98
24834;BME280;12914;43.702;22.862;2022-07-23T10:29:52;99043.66;;;46.67;25.83
24834;BME280;12914;43.702;22.862;2022-07-23T10:38:07;99026.50;;;46.46;23.55
24834;BME280;12914;43.702;22.862;2022-07-23T10:40:33;99019.91;;;45.11;24.14
24834;BME280;12914;43.702;22.862;2022-07-23T10:43:00;99028.34;;;45.84;24.74
24834;BME280;12914;43.702;22.862;2022-07-23T10:45:34;99023.31;;;46.40;24.07
24834;BME280;12914;43.702;22.862;2022-07-23T10:48:21;99017.69;;;46.48;23.61
24834;BME280;12914;43.702;22.862;2022-07-23T10:51:10;99017.88;;;46.52;23.52
24834;BME280;12914;43.702;22.862;2022-07-23T10:53:57;99016.75;;;45.57;23.32
24834;BME280;12914;43.702;22.862;2022-07-23T10:59:20;99016.97;;;46.67;23.44
24834;BME280;12914;43.702;22.862;2022-07-23T11:01:46;99007.13;;;46.25;22.67
24834;BME280;12914;43.702;22.862;2022-07-23T11:04:12;99004.09;;;45.88;23.77
24834;BME280;12914;43.702;22.862;2022-07-23T11:09:39;99006.16;;;46.56;24.63
24834;BME280;12914;43.702;22.862;2022-07-23T11:17:25;98977.66;;;46.85;22.02
24834;BME280;12914;43.702;22.862;2022-07-23T11:22:36;98974.56;;;47.20;23.86
24834;BME280;12914;43.702;22.862;2022-07-23T11:25:03;98976.38;;;46.90;22.92
24834;BME280;12914;43.702;22.862;2022-07-23T11:27:42;98971.72;;;47.24;23.07
24834;BME280;12914;43.702;22.862;2022-07-23T11:30:10;98973.19;;;48.09;22.61
24834;BME280;12914;43.702;22.862;2022-07-23T11:32:39;98969.63;;;50.22;21.10
24834;BME280;12914;43.702;22.862;2022-07-23T11:35:26;98967.81;;;50.38;20.79
24834;BME280;12914;43.702;22.862;2022-07-23T11:37:54;98963.16;;;46.55;22.28
24834;BME280;12914;43.702;22.862;2022-07-23T11:40:27;98959.97;;;50.23;20.57
24834;BME280;12914;43.702;22.862;2022-07-23T11:45:34;98962.81;;;48.10;24.09
24834;BME280;12914;43.702;22.862;2022-07-23T11:48:01;98950.31;;;46.68;22.81
24834;BME280;12914;43.702;22.862;2022-07-23T11:50:27;98961.84;;;47.81;23.99
24834;BME280;12914;43.702;22.862;2022-07-23T11:52:53;98949.25;;;47.39;21.24
24834;BME280;12914;43.702;22.862;2022-07-23T11:55:19;98947.16;;;47.63;21.30
24834;BME280;12914;43.702;22.862;2022-07-23T11:57:45;98948.38;;;48.22;21.15
24834;BME280;12914;43.702;22.862;2022-07-23T12:00:17;98945.03;;;47.04;21.60
24834;BME280;12914;43.702;22.862;2022-07-23T12:02:45;98946.47;;;47.65;21.31
24834;BME280;12914;43.702;22.862;2022-07-23T12:05:14;98937.41;;;48.05;20.70
24834;BME280;12914;43.702;22.862;2022-07-23T12:07:41;98930.13;;;48.32;22.41
24834;BME280;12914;43.702;22.862;2022-07-23T12:10:30;98940.88;;;48.19;21.60
24834;BME280;12914;43.702;22.862;2022-07-23T12:13:01;98936.06;;;48.32;21.85
24834;BME280;12914;43.702;22.862;2022-07-23T12:15:28;98926.69;;;48.41;21.35
24834;BME280;12914;43.702;22.862;2022-07-23T12:17:57;98930.47;;;48.68;22.61
24834;BME280;12914;43.702;22.862;2022-07-23T12:20:28;98932.34;;;48.81;20.65
24834;BME280;12914;43.702;22.862;2022-07-23T12:23:00;98918.63;;;47.76;22.01
24834;BME280;12914;43.702;22.862;2022-07-23T12:25:30;98923.59;;;48.87;20.87
24834;BME280;12914;43.702;22.862;2022-07-23T12:30:33;98911.44;;;45.49;21.17
24834;BME280;12914;43.702;22.862;2022-07-23T12:32:59;98910.44;;;48.44;21.46
24834;BME280;12914;43.702;22.862;2022-07-23T12:35:37;98917.69;;;48.89;19.54
24834;BME280;12914;43.702;22.862;2022-07-23T12:38:07;98921.19;;;48.81;19.35
24834;BME280;12914;43.702;22.862;2022-07-23T12:40:43;98917.25;;;48.49;19.22
24834;BME280;12914;43.702;22.862;2022-07-23T12:43:23;98911.00;;;50.64;19.13
24834;BME280;12914;43.702;22.862;2022-07-23T12:45:51;98906.09;;;49.83;20.65
24834;BME280;12914;43.702;22.862;2022-07-23T12:48:19;98900.50;;;46.25;20.94
24834;BME280;12914;43.702;22.862;2022-07-23T12:53:23;98898.75;;;46.95;20.57
24834;BME280;12914;43.702;22.862;2022-07-23T12:55:56;98888.00;;;48.39;19.32
24834;BME280;12914;43.702;22.862;2022-07-23T12:58:23;98886.16;;;48.78;19.62
24834;BME280;12914;43.702;22.862;2022-07-23T13:00:56;98879.00;;;49.41;18.89
24834;BME280;12914;43.702;22.862;2022-07-23T13:03:41;98882.09;;;49.45;19.03
24834;BME280;12914;43.702;22.862;2022-07-23T13:06:09;98872.41;;;49.74;19.72
24834;BME280;12914;43.702;22.862;2022-07-23T13:08:36;98869.09;;;50.94;19.74
24834;BME280;12914;43.702;22.862;2022-07-23T13:11:04;98869.19;;;50.98;18.76
24834;BME280;12914;43.702;22.862;2022-07-23T13:13:32;98861.22;;;49.73;19.64
24834;BME280;12914;43.702;22.862;2022-07-23T13:15:58;98861.78;;;48.32;21.46
24834;BME280;12914;43.702;22.862;2022-07-23T13:18:25;98858.09;;;48.57;19.15
24834;BME280;12914;43.702;22.862;2022-07-23T13:20:51;98855.75;;;49.33;20.64
24834;BME280;12914;43.702;22.862;2022-07-23T13:23:17;98853.56;;;48.82;19.24
24834;BME280;12914;43.702;22.862;2022-07-23T13:25:43;98855.56;;;50.17;20.43
24834;BME280;12914;43.702;22.862;2022-07-23T13:28:08;98850.75;;;50.02;18.52